createdAt,value
2018-06-14T00:00:01.691Z,96835.91
2018-06-14T00:02:48.173Z,96836.27
2018-06-14T00:05:35.477Z,96828.92
2018-06-14T00:13:55.377Z,96850.67
2018-06-14T00:19:19.389Z,96854.05
2018-06-14T00:22:03.773Z,96848.91
2018-06-14T00:24:50.260Z,96852.05
2018-06-14T00:27:29.417Z,96850.02
2018-06-14T00:30:11.904Z,96849.34
2018-06-14T00:32:45.128Z,96864.25
2018-06-14T00:35:14.921Z,96871.47
2018-06-14T00:37:48.367Z,96875.41
2018-06-14T00:40:31.652Z,96878.23
2018-06-14T00:45:48.026Z,96872.09
2018-06-14T00:51:09.189Z,96871.28
2018-06-14T00:54:00.250Z,96875.16
2018-06-14T00:56:50.349Z,96882.38
2018-06-14T00:59:24.081Z,96889.57
2018-06-14T01:02:01.305Z,96897.77
2018-06-14T01:04:38.482Z,96899.56
2018-06-14T01:07:22.950Z,96904.36
2018-06-14T01:10:01.702Z,96899.39
2018-06-14T01:12:38.889Z,96901.02
2018-06-14T01:15:21.131Z,96902.15
2018-06-14T01:18:02.053Z,96902.15
2018-06-14T01:20:45.111Z,96896.34
2018-06-14T01:23:32.295Z,96894.84
2018-06-14T01:26:10.552Z,96900.05
2018-06-14T01:28:54.277Z,96897.10
2018-06-14T01:31:29.891Z,96902.41
2018-06-14T01:33:59.961Z,96891.24
2018-06-14T01:36:29.955Z,96895.48
2018-06-14T01:39:00.074Z,96897.64
2018-06-14T01:41:29.855Z,96904.91
2018-06-14T01:43:59.871Z,96915.14
2018-06-14T01:46:29.900Z,96914.94
2018-06-14T01:49:00.010Z,96912.70
2018-06-14T01:51:29.993Z,96921.57
2018-06-14T01:54:00.004Z,96913.63
2018-06-14T01:56:30.165Z,96916.30
2018-06-14T01:59:00.077Z,96913.13
2018-06-14T02:01:30.343Z,96914.97
2018-06-14T02:04:00.227Z,96913.23
2018-06-14T02:06:30.295Z,96917.92
2018-06-14T02:09:00.282Z,96923.57
2018-06-14T02:11:30.313Z,96915.43
2018-06-14T02:14:00.282Z,96910.86
2018-06-14T02:16:30.932Z,96916.38
2018-06-14T02:19:00.572Z,96913.30
2018-06-14T02:21:30.820Z,96920.77
2018-06-14T02:24:00.537Z,96921.69
2018-06-14T02:26:30.480Z,96924.34
2018-06-14T02:29:00.445Z,96923.54
2018-06-14T02:31:30.737Z,96915.69
2018-06-14T02:34:00.511Z,96912.28
2018-06-14T02:36:30.655Z,96914.06
2018-06-14T02:39:00.524Z,96921.28
2018-06-14T02:41:30.640Z,96924.53
2018-06-14T02:44:00.706Z,96925.47
2018-06-14T02:46:30.573Z,96930.53
2018-06-14T02:49:00.632Z,96924.48
2018-06-14T02:51:30.713Z,96932.36
2018-06-14T02:54:00.663Z,96937.00
2018-06-14T02:56:30.704Z,96931.52
2018-06-14T02:59:00.653Z,96935.17
2018-06-14T03:01:30.671Z,96930.93
2018-06-14T03:04:00.784Z,96932.91
2018-06-14T03:06:30.736Z,96935.91
2018-06-14T03:09:00.870Z,96943.84
2018-06-14T03:11:30.724Z,96948.02
2018-06-14T03:14:00.855Z,96951.66
2018-06-14T03:16:30.908Z,96955.36
2018-06-14T03:19:00.922Z,96949.98
2018-06-14T03:21:30.827Z,96948.08
2018-06-14T03:24:00.816Z,96950.39
2018-06-14T03:26:30.845Z,96947.05
2018-06-14T03:29:00.901Z,96947.93
2018-06-14T03:31:31.124Z,96947.78
2018-06-14T03:34:01.170Z,96955.19
2018-06-14T03:36:36.770Z,96968.17
2018-06-14T03:39:08.390Z,96968.47
2018-06-14T03:41:38.011Z,96971.91
2018-06-14T03:44:07.660Z,96969.36
2018-06-14T03:46:37.366Z,96973.63
2018-06-14T03:49:06.992Z,96971.77
2018-06-14T03:51:36.320Z,96972.89
2018-06-14T03:54:06.027Z,96974.92
2018-06-14T03:56:35.663Z,96974.72
2018-06-14T03:59:05.296Z,96971.26
2018-06-14T04:01:35.013Z,96970.52
2018-06-14T04:04:04.705Z,96973.72
2018-06-14T04:06:34.348Z,96971.32
2018-06-14T04:09:04.279Z,96974.55
2018-06-14T04:11:33.949Z,96979.31
2018-06-14T04:14:03.726Z,96977.69
2018-06-14T04:16:33.789Z,96981.86
2018-06-14T04:19:03.556Z,96983.76
2018-06-14T04:21:33.385Z,96991.63
2018-06-14T04:24:03.217Z,96983.52
2018-06-14T04:26:32.815Z,96987.48
2018-06-14T04:29:02.536Z,96985.06
2018-06-14T04:31:32.224Z,96994.20
2018-06-14T04:34:02.060Z,97003.36
2018-06-14T04:36:31.953Z,96998.95
2018-06-14T04:39:02.173Z,97000.66
2018-06-14T04:41:34.070Z,97003.20
2018-06-14T04:44:04.619Z,97004.27
2018-06-14T04:46:35.644Z,97003.23
2018-06-14T04:49:06.262Z,97007.63
2018-06-14T04:51:45.659Z,96998.47
2018-06-14T04:54:16.351Z,97001.20
2018-06-14T04:56:47.573Z,97006.13
2018-06-14T04:59:18.601Z,97006.48
2018-06-14T05:01:48.486Z,97008.40
2018-06-14T05:04:19.296Z,97011.84
2018-06-14T05:06:49.736Z,97011.02
2018-06-14T05:09:20.951Z,97017.62
2018-06-14T05:11:52.798Z,97018.37
2018-06-14T05:14:23.894Z,97015.78
2018-06-14T05:16:54.351Z,97012.92
2018-06-14T05:19:24.015Z,97017.44
2018-06-14T05:22:08.521Z,97019.63
2018-06-14T05:24:39.941Z,97015.25
2018-06-14T05:27:09.410Z,97023.97
2018-06-14T05:29:40.101Z,97026.09
2018-06-14T05:32:09.571Z,97029.00
2018-06-14T05:34:39.433Z,97027.91
2018-06-14T05:37:09.637Z,97029.59
2018-06-14T05:39:40.697Z,97043.05
2018-06-14T05:42:11.166Z,97042.69
2018-06-14T05:44:41.254Z,97043.75
2018-06-14T05:47:10.849Z,97044.44
2018-06-14T05:49:44.584Z,97044.53
2018-06-14T05:52:14.412Z,97039.14
2018-06-14T05:54:44.015Z,97041.94
2018-06-14T05:57:13.749Z,97045.39
2018-06-14T05:59:43.091Z,97046.03
2018-06-14T06:02:12.575Z,97044.63
2018-06-14T06:04:46.019Z,97047.90
2018-06-14T06:07:15.745Z,97049.78
2018-06-14T06:09:45.447Z,97054.11
2018-06-14T06:12:15.125Z,97058.75
2018-06-14T06:14:52.276Z,97053.41
2018-06-14T06:19:56.863Z,97056.99
2018-06-14T06:22:26.689Z,97058.65
2018-06-14T06:24:56.507Z,97063.05
2018-06-14T06:27:26.209Z,97067.52
2018-06-14T06:29:57.126Z,97068.31
2018-06-14T06:32:28.120Z,97061.94
2018-06-14T06:34:58.835Z,97066.70
2018-06-14T06:37:34.157Z,97070.70
2018-06-14T06:40:07.476Z,97061.61
2018-06-14T06:42:40.004Z,97062.60
2018-06-14T06:45:13.617Z,97067.48
2018-06-14T06:47:46.090Z,97066.05
2018-06-14T06:50:16.297Z,97059.56
2018-06-14T06:55:23.701Z,97055.43
2018-06-14T06:57:55.827Z,97057.99
2018-06-14T07:00:31.303Z,97053.71
2018-06-14T07:03:06.025Z,97058.83
2018-06-14T07:05:35.546Z,97056.97
2018-06-14T07:08:05.095Z,97057.02
2018-06-14T07:10:34.808Z,97062.07
2018-06-14T07:13:04.539Z,97056.52
2018-06-14T07:15:34.347Z,97063.43
2018-06-14T07:18:04.118Z,97065.79
2018-06-14T07:20:33.779Z,97060.95
2018-06-14T07:23:03.436Z,97070.80
2018-06-14T07:25:33.352Z,97062.95
2018-06-14T07:28:03.740Z,97070.00
2018-06-14T07:30:33.555Z,97071.88
2018-06-14T07:33:03.823Z,97071.59
2018-06-14T07:35:33.616Z,97068.99
2018-06-14T07:38:03.286Z,97073.00
2018-06-14T07:40:32.929Z,97072.48
2018-06-14T07:43:02.777Z,97073.80
2018-06-14T07:45:32.646Z,97071.95
2018-06-14T07:48:02.373Z,97074.08
2018-06-14T07:50:32.309Z,97081.00
2018-06-14T07:53:02.130Z,97080.95
2018-06-14T07:55:32.255Z,97087.66
2018-06-14T07:58:01.929Z,97083.19
2018-06-14T08:00:32.288Z,97091.16
2018-06-14T08:03:03.227Z,97085.62
2018-06-14T08:05:33.400Z,97087.17
2018-06-14T08:08:04.887Z,97091.23
2018-06-14T08:10:34.597Z,97092.27
2018-06-14T08:13:05.216Z,97091.30
2018-06-14T08:15:35.078Z,97087.50
2018-06-14T08:18:04.688Z,97090.27
2018-06-14T08:20:34.413Z,97090.78
2018-06-14T08:23:04.157Z,97099.48
2018-06-14T08:25:34.030Z,97096.80
2018-06-14T08:28:03.720Z,97099.23
2018-06-14T08:30:33.617Z,97089.82
2018-06-14T08:33:03.355Z,97093.59
2018-06-14T08:35:33.223Z,97099.86
2018-06-14T08:38:02.734Z,97102.59
2018-06-14T08:40:32.355Z,97098.83
2018-06-14T08:43:02.129Z,97102.85
2018-06-14T08:45:32.535Z,97094.55
2018-06-14T08:48:02.654Z,97097.75
2018-06-14T08:50:33.033Z,97102.86
2018-06-14T08:53:03.018Z,97098.84
2018-06-14T08:55:32.730Z,97102.86
2018-06-14T08:58:02.491Z,97106.08
2018-06-14T09:00:32.177Z,97100.70
2018-06-14T09:03:02.133Z,97102.06
2018-06-14T09:05:31.752Z,97101.80
2018-06-14T09:08:01.562Z,97104.20
2018-06-14T09:10:31.277Z,97103.14
2018-06-14T09:13:02.268Z,97100.98
2018-06-14T09:15:31.962Z,97114.39
2018-06-14T09:18:07.397Z,97099.93
2018-06-14T09:20:36.776Z,97112.00
2018-06-14T09:23:06.404Z,97100.72
2018-06-14T09:25:36.432Z,97103.83
2018-06-14T09:28:06.355Z,97105.64
2018-06-14T09:30:40.318Z,97105.88
2018-06-14T09:33:10.013Z,97102.52
2018-06-14T09:35:39.759Z,97109.55
2018-06-14T09:40:45.899Z,97111.06
2018-06-14T09:43:15.619Z,97112.75
2018-06-14T09:45:47.437Z,97116.92
2018-06-14T09:48:17.109Z,97102.16
2018-06-14T09:53:30.303Z,97111.53
2018-06-14T09:56:00.876Z,97117.88
2018-06-14T10:01:05.869Z,97125.59
2018-06-14T10:03:35.361Z,97124.03
2018-06-14T10:06:05.074Z,97128.22
2018-06-14T10:08:34.869Z,97119.56
2018-06-14T10:11:06.390Z,97122.86
2018-06-14T10:13:36.126Z,97130.16
2018-06-14T10:16:08.316Z,97124.02
2018-06-14T10:18:39.168Z,97125.89
2018-06-14T10:21:08.867Z,97126.72
2018-06-14T10:23:39.089Z,97131.50
2018-06-14T10:26:09.090Z,97137.45
2018-06-14T10:28:38.844Z,97137.43
2018-06-14T10:31:08.637Z,97137.65
2018-06-14T10:33:39.128Z,97135.52
2018-06-14T10:36:09.441Z,97136.86
2018-06-14T10:38:39.229Z,97130.20
2018-06-14T10:41:10.346Z,97129.63
2018-06-14T10:43:40.081Z,97133.63
2018-06-14T10:46:09.859Z,97138.50
2018-06-14T10:48:41.014Z,97128.58
2018-06-14T10:51:10.750Z,97136.63
2018-06-14T10:53:40.706Z,97129.91
2018-06-14T10:58:46.204Z,97133.05
2018-06-14T11:01:15.609Z,97136.31
2018-06-14T11:03:45.704Z,97125.64
2018-06-14T11:06:15.481Z,97130.99
2018-06-14T11:08:45.146Z,97128.83
2018-06-14T11:11:14.894Z,97132.03
2018-06-14T11:13:49.991Z,97136.09
2018-06-14T11:16:20.023Z,97132.35
2018-06-14T11:18:50.300Z,97126.72
2018-06-14T11:21:20.173Z,97121.34
2018-06-14T11:23:49.752Z,97128.78
2018-06-14T11:26:19.870Z,97116.22
2018-06-14T11:29:00.155Z,97114.12
2018-06-14T11:31:41.110Z,97117.05
2018-06-14T11:34:26.250Z,97117.84
2018-06-14T11:37:08.434Z,97116.16
2018-06-14T11:39:48.375Z,97110.77
2018-06-14T11:42:30.671Z,97113.49
2018-06-14T11:45:10.120Z,97111.06
2018-06-14T11:47:51.678Z,97114.33
2018-06-14T11:50:41.379Z,97111.89
2018-06-14T11:53:28.096Z,97110.59
2018-06-14T11:56:14.128Z,97107.13
2018-06-14T12:01:39.223Z,97107.66
2018-06-14T12:04:13.173Z,97109.01
2018-06-14T12:06:47.472Z,97109.58
2018-06-14T12:09:37.456Z,97108.48
2018-06-14T12:15:14.318Z,97095.91
2018-06-14T12:17:52.321Z,97098.80
2018-06-14T12:20:38.456Z,97098.87
2018-06-14T12:23:19.561Z,97101.41
2018-06-14T12:25:57.870Z,97094.63
2018-06-14T12:28:36.380Z,97102.59
2018-06-14T12:31:21.093Z,97091.04
2018-06-14T12:34:01.541Z,97082.42
2018-06-14T12:36:39.774Z,97095.11
2018-06-14T12:39:26.471Z,97087.61
2018-06-14T12:44:43.866Z,97089.41
2018-06-14T12:47:22.085Z,97087.94
2018-06-14T12:50:01.646Z,97083.69
2018-06-14T12:52:44.363Z,97090.42
2018-06-14T12:55:23.578Z,97086.97
2018-06-14T12:58:03.103Z,97079.81
2018-06-14T13:00:45.941Z,97084.39
2018-06-14T13:06:10.482Z,97085.01
2018-06-14T13:08:50.128Z,97090.64
2018-06-14T13:11:27.363Z,97090.77
2018-06-14T13:16:52.713Z,97088.39
2018-06-14T13:19:29.383Z,97088.88
2018-06-14T13:22:08.776Z,97093.59
2018-06-14T13:24:45.734Z,97093.30
2018-06-14T13:27:25.513Z,97088.73
2018-06-14T13:30:06.246Z,97087.81
2018-06-14T13:35:32.027Z,97089.96
2018-06-14T13:38:11.943Z,97092.81
2018-06-14T13:40:46.741Z,97093.30
2018-06-14T13:43:27.266Z,97090.20
2018-06-14T13:46:06.637Z,97094.98
2018-06-14T13:48:49.323Z,97082.97
2018-06-14T13:51:29.478Z,97085.50
2018-06-14T13:54:03.240Z,97084.23
2018-06-14T13:59:29.052Z,97080.08
2018-06-14T14:07:38.935Z,97072.09
2018-06-14T14:10:22.050Z,97074.39
2018-06-14T14:13:00.467Z,97072.10
2018-06-14T14:15:40.660Z,97074.19
2018-06-14T14:18:20.672Z,97054.59
2018-06-14T14:20:59.114Z,97058.45
2018-06-14T14:23:35.567Z,97068.19
2018-06-14T14:26:14.782Z,97057.66
2018-06-14T14:28:50.924Z,97065.17
2018-06-14T14:31:30.884Z,97066.17
2018-06-14T14:34:17.828Z,97062.38
2018-06-14T14:37:01.044Z,97063.14
2018-06-14T14:39:37.394Z,97057.55
2018-06-14T14:42:16.513Z,97054.62
2018-06-14T14:44:53.314Z,97056.05
2018-06-14T14:47:28.368Z,97060.02
2018-06-14T14:50:14.497Z,97068.82
2018-06-14T14:52:57.075Z,97063.71
2018-06-14T14:55:33.189Z,97056.75
2018-06-14T15:01:11.457Z,97060.24
2018-06-14T15:03:54.123Z,97054.31
2018-06-14T15:06:35.483Z,97064.02
2018-06-14T15:09:26.759Z,97064.20
2018-06-14T15:12:08.966Z,97054.56
2018-06-14T15:14:43.628Z,97063.02
2018-06-14T15:17:23.475Z,97050.31
2018-06-14T15:20:05.348Z,97054.38
2018-06-14T15:22:43.830Z,97052.45
2018-06-14T15:25:28.781Z,97058.41
2018-06-14T15:33:38.043Z,97069.95
2018-06-14T15:36:16.537Z,97071.53
2018-06-14T15:38:54.334Z,97069.38
2018-06-14T15:44:15.679Z,97075.08
2018-06-14T15:46:54.580Z,97069.34
2018-06-14T15:49:34.600Z,97067.97
2018-06-14T15:52:25.657Z,97063.70
2018-06-14T15:55:16.472Z,97069.00
2018-06-14T16:00:41.088Z,97065.33
2018-06-14T16:03:20.706Z,97065.57
2018-06-14T16:05:57.292Z,97069.61
2018-06-14T16:08:30.959Z,97062.91
2018-06-14T16:11:04.883Z,97065.45
2018-06-14T16:13:39.575Z,97063.00
2018-06-14T16:16:14.642Z,97073.36
2018-06-14T16:18:54.871Z,97073.98
2018-06-14T16:21:36.010Z,97068.78
2018-06-14T16:24:25.482Z,97072.27
2018-06-14T16:27:10.606Z,97074.47
2018-06-14T16:29:54.013Z,97071.22
2018-06-14T16:32:40.484Z,97069.67
2018-06-14T16:35:17.822Z,97075.30
2018-06-14T16:38:02.649Z,97067.67
2018-06-14T16:40:40.268Z,97070.60
2018-06-14T16:54:28.921Z,97072.95
2018-06-14T16:57:13.763Z,97072.56
2018-06-14T17:00:02.219Z,97068.19
2018-06-14T17:02:42.704Z,97074.59
2018-06-14T17:05:20.137Z,97072.70
2018-06-14T17:08:12.779Z,97072.19
2018-06-14T17:13:48.579Z,97075.17
2018-06-14T17:16:38.523Z,97070.61
2018-06-14T17:19:23.440Z,97081.39
2018-06-14T17:24:56.684Z,97078.98
2018-06-14T17:27:36.406Z,97074.86
2018-06-14T17:30:15.471Z,97078.55
2018-06-14T17:35:34.715Z,97081.02
2018-06-14T17:38:15.482Z,97089.41
2018-06-14T17:40:53.697Z,97090.00
2018-06-14T17:43:33.582Z,97100.18
2018-06-14T17:46:11.078Z,97099.92
2018-06-14T17:51:51.631Z,97101.22
2018-06-14T18:00:17.317Z,97115.36
2018-06-14T18:03:05.005Z,97107.31
2018-06-14T18:05:38.966Z,97111.64
2018-06-14T18:08:19.848Z,97112.19
2018-06-14T18:13:56.813Z,97104.09
2018-06-14T18:16:41.859Z,97104.63
2018-06-14T18:22:18.180Z,97112.74
2018-06-14T18:25:03.126Z,97113.06
2018-06-14T18:27:39.689Z,97115.48
2018-06-14T18:30:33.240Z,97117.34
2018-06-14T18:33:13.206Z,97113.30
2018-06-14T18:35:55.653Z,97115.44
2018-06-14T18:38:40.649Z,97119.46
2018-06-14T18:44:24.732Z,97120.55
2018-06-14T18:49:55.461Z,97126.45
2018-06-14T18:52:30.506Z,97131.52
2018-06-14T18:55:23.354Z,97132.55
2018-06-14T18:58:07.217Z,97136.34
2018-06-14T19:00:51.195Z,97138.70
2018-06-14T19:03:37.058Z,97144.58
2018-06-14T19:06:13.442Z,97139.00
2018-06-14T19:08:57.027Z,97149.14
2018-06-14T19:11:41.100Z,97149.97
2018-06-14T19:20:01.473Z,97160.71
2018-06-14T19:25:36.076Z,97174.33
2018-06-14T19:28:14.123Z,97170.53
2018-06-14T19:30:50.219Z,97176.48
2018-06-14T19:33:34.957Z,97177.00
2018-06-14T19:36:22.912Z,97179.91
2018-06-14T19:41:53.373Z,97188.79
2018-06-14T19:44:42.300Z,97190.61
2018-06-14T19:50:21.202Z,97193.55
2018-06-14T19:52:55.549Z,97198.91
2018-06-14T19:58:31.561Z,97194.36
2018-06-14T20:01:11.037Z,97198.70
2018-06-14T20:06:29.352Z,97208.13
2018-06-14T20:09:12.503Z,97204.78
2018-06-14T20:20:26.990Z,97210.12
2018-06-14T20:23:05.095Z,97220.53
2018-06-14T20:25:37.152Z,97216.23
2018-06-14T20:28:10.531Z,97217.78
2018-06-14T20:30:51.492Z,97217.59
2018-06-14T20:33:29.934Z,97220.73
2018-06-14T20:36:14.445Z,97228.45
2018-06-14T20:38:55.836Z,97221.86
2018-06-14T20:41:35.412Z,97221.81
2018-06-14T20:47:02.447Z,97223.51
2018-06-14T20:52:33.809Z,97230.50
2018-06-14T20:55:22.507Z,97231.77
2018-06-14T20:58:02.693Z,97236.69
2018-06-14T21:00:49.108Z,97234.36
2018-06-14T21:06:12.422Z,97238.39
2018-06-14T21:08:52.613Z,97232.00
2018-06-14T21:11:30.156Z,97233.87
2018-06-14T21:14:08.097Z,97234.27
2018-06-14T21:19:38.920Z,97230.19
2018-06-14T21:22:26.536Z,97235.30
2018-06-14T21:33:18.693Z,97245.55
2018-06-14T21:36:04.981Z,97246.59
2018-06-14T21:44:27.408Z,97253.33
2018-06-14T21:47:09.518Z,97251.16
2018-06-14T21:49:53.664Z,97255.27
2018-06-14T21:55:28.401Z,97260.05
2018-06-14T21:58:06.446Z,97255.73
2018-06-14T22:03:53.950Z,97258.48
2018-06-14T22:06:39.280Z,97242.84
2018-06-14T22:12:17.840Z,97256.45
2018-06-14T22:14:57.878Z,97254.09
2018-06-14T22:17:43.802Z,97260.07
2018-06-14T22:20:31.210Z,97256.59
2018-06-14T22:23:26.163Z,97246.39
2018-06-14T22:26:07.365Z,97243.89
2018-06-14T22:28:56.535Z,97236.51
2018-06-14T22:37:22.256Z,97241.23
2018-06-14T22:40:07.368Z,97229.14
2018-06-14T22:45:37.489Z,97224.66
2018-06-14T22:52:02.250Z,97211.84
2018-06-14T23:03:50.976Z,97216.86
2018-06-14T23:10:32.626Z,97220.41
2018-06-14T23:13:19.444Z,97213.92
2018-06-14T23:18:50.817Z,97220.41
2018-06-14T23:21:35.826Z,97217.09
2018-06-14T23:24:16.288Z,97214.23
2018-06-14T23:26:56.691Z,97211.28
2018-06-14T23:29:41.918Z,97213.33
2018-06-14T23:32:32.255Z,97210.11
2018-06-14T23:38:13.925Z,97208.66
2018-06-14T23:41:05.759Z,97210.64
2018-06-14T23:43:48.717Z,97211.83
2018-06-14T23:46:32.000Z,97206.56
2018-06-14T23:49:20.076Z,97204.59
2018-06-14T23:52:04.254Z,97203.23
2018-06-14T23:54:45.525Z,97201.89
2018-06-14T23:57:30.203Z,97204.94
